Terminal Aerodrome Forecast
Issued by NWS

Home | Current Version | Previous Version | Text Only | Print | Product List | Glossary On
Versions: 1 2 3 4 5 6 7 8 9 10 11 12 13 14 15 16 17 18 19 20 21
000
FTUS43 KDLH 242300 RRA
TAFBRD
TAF
KBRD 242341Z 2500/2524 33014G20KT P6SM SKC
     FM250100 33010KT P6SM SKC
     FM250500 35005KT P6SM BKN120
     FM251500 01006KT P6SM BKN100
     FM251700 36008KT P6SM SCT025 BKN080=

USA.gov is the U.S. government's official web portal to all federal, state and local government web resources and services.